Terminal Aerodrome Forecast
Issued by NWS Wakefield, VA

Home | Current Version | Previous Version | Text Only | Print | Product List | Glossary On
Versions: 1 2 3 4 5 6 7 8 9 10 11 12 13 14 15 16 17
450
FTUS41 KAKQ 210256 AAA
TAFORF
TAF AMD
KORF 210256Z 2103/2124 00000KT 4SM BR OVC012
      TEMPO 2104/2107 2SM BR OVC008
     FM210700 00000KT 1SM BR OVC005
     FM211400 15003KT 4SM BR OVC008
     FM211600 14005KT P6SM OVC012
     FM211800 12004KT P6SM BKN020=

USA.gov is the U.S. government's official web portal to all federal, state and local government web resources and services.